Latest Weather Observations for Robe Airport

IDS60801

Issued at 11:02 am CDT Saturday 28 February 2015 (issued every 30 minutes, with the page automatically refreshed every 10 minutes)

About weather observations | Map of weather stations | Latest weather observations for SA | Other Formats
Station Details ID: 026105 Name: ROBE AIRFIELD Lat: -37.18 Lon: 139.81 Height: 3.0 m
Data from the previous 72 hours. | See also: Recent months at Robe Airport
Date/Time
CDT
Temp
°C
App
Temp
°C
Dew
Point
Rel
Hum
%
Delta-T
°C
Wind Press
QNH
hPa
Press
MSL
hPa
Rain
since 9 am
mm
Dir
 
Spd
km/h
Gust
km/h
Spd
kts
Gust
kts
28/11:00am 24.1 22.9 16.1 61 4.9 NW 17 22 9 12 1004.0 1004.0 0.0
28/10:30am 23.5 23.6 16.5 65 4.3 NW 11 17 6 9 1004.0 1004.0 0.0
28/10:00am 22.5 22.2 16.5 69 3.6 NW 13 17 7 9 1004.0 1004.0 0.0
28/09:30am 23.6 24.1 16.6 65 4.3 NNW 9 13 5 7 1004.0 1004.0 0.0
28/09:00am 22.9 23.7 16.4 67 4.0 NNE 7 11 4 6 1004.0 1004.0 1.6
28/08:30am 22.0 22.8 16.3 70 3.5 NNE 7 11 4 6 1004.1 1004.1 1.6
28/08:00am 21.3 21.7 16.3 73 3.0 NNE 9 13 5 7 1003.9 1003.9 1.6
28/07:30am 20.4 22.0 16.0 76 2.6 NNE 2 7 1 4 1003.7 1003.7 1.6
28/07:00am 20.0 20.9 16.0 78 2.4 NNE 6 7 3 4 1003.7 1003.7 1.6
28/06:30am 19.8 20.8 16.3 80 2.1 NE 6 7 3 4 1003.5 1003.5 1.6
28/06:00am 20.1 20.9 15.9 77 2.5 NE 6 7 3 4 1003.4 1003.4 1.6
28/05:30am 20.1 20.4 15.9 77 2.5 NE 9 13 5 7 1003.3 1003.3 1.6
28/05:00am 20.8 20.6 15.8 73 3.0 NNE 11 15 6 8 1003.4 1003.4 1.6
28/04:30am 20.4 19.0 15.6 74 2.9 NNE 17 24 9 13 1003.7 1003.7 1.6
28/04:00am 19.2 19.4 15.7 80 2.1 NNE 9 15 5 8 1004.1 1004.1 1.6
28/03:30am 19.0 18.8 15.7 81 2.0 NE 11 15 6 8 1004.2 1004.2 1.6
28/03:00am 18.7 17.8 15.8 83 1.7 NNE 15 20 8 11 1004.6 1004.6 1.6
28/02:30am 18.2 16.5 15.8 86 1.4 NNE 19 26 10 14 1005.2 1005.2 1.6
28/02:00am 18.0 17.0 15.6 86 1.4 NNE 15 24 8 13 1005.6 1005.6 1.6
28/01:30am 17.9 17.3 15.7 87 1.3 NNE 13 19 7 10 1006.4 1006.4 1.6
28/01:00am 17.6 16.3 15.8 89 1.1 NNE 17 24 9 13 1006.7 1006.7 1.6
28/12:30am 17.4 17.2 15.6 89 1.1 NE 11 17 6 9 1007.4 1007.4 1.6
28/12:00am 17.5 17.5 15.3 87 1.3 ENE 9 13 5 7 1007.4 1007.4 1.4
 
Date/Time
CDT
Temp
°C
App
Temp
°C
Dew
Point
Rel
Hum
%
Delta-T
°C
Wind Press
QNH
hPa
Press
MSL
hPa
Rain
since 9 am
mm
Dir
 
Spd
km/h
Gust
km/h
Spd
kts
Gust
kts
27/11:30pm 17.4 17.4 15.2 87 1.3 E 9 13 5 7 1008.2 1008.2 1.4
27/11:00pm 17.1 16.8 15.4 90 1.0 ESE 11 15 6 8 1008.6 1008.6 1.2
27/10:30pm 17.2 18.2 15.4 89 1.1 ESE 4 6 2 3 1010.0 1010.0 1.0
27/10:00pm 17.4 18.4 15.4 88 1.2 ESE 4 6 2 3 1010.3 1010.3 0.8
27/09:30pm 17.6 18.5 15.2 86 1.4 SE 4 6 2 3 1010.3 1010.3 0.6
27/09:00pm 17.8 18.3 15.1 84 1.6 SE 6 9 3 5 1009.9 1009.9 0.6
27/08:30pm 18.2 18.1 14.9 81 1.9 SE 9 13 5 7 1009.5 1009.5 0.2
27/08:00pm 18.1 18.4 15.0 82 1.8 SE 7 11 4 6 1009.4 1009.4 0.2
27/07:30pm 18.6 18.2 14.1 75 2.6 SE 9 11 5 6 1009.1 1009.1 0.0
27/07:00pm 19.2 18.3 13.8 71 3.1 SE 11 19 6 10 1008.9 1008.9 0.0
27/06:30pm 19.4 17.3 13.6 69 3.3 SE 17 22 9 12 1008.9 1008.9 0.0
27/06:00pm 19.9 18.0 12.9 64 4.0 SSE 15 20 8 11 1008.9 1008.9 0.0
27/05:30pm 19.9 17.2 12.9 64 4.0 S 19 24 10 13 1009.0 1009.0 0.0
27/05:00pm 20.4 18.5 13.1 63 4.2 S 15 19 8 10 1009.0 1009.0 0.0
27/04:30pm 20.8 18.6 13.3 62 4.3 S 17 20 9 11 1008.9 1008.9 0.0
27/04:00pm 21.0 18.9 13.7 63 4.2 SSW 17 20 9 11 1008.9 1008.9 0.0
27/03:30pm 21.9 20.3 14.0 61 4.6 SSW 15 24 8 13 1009.1 1009.1 0.0
27/03:00pm 21.6 19.6 14.0 62 4.4 S 17 22 9 12 1009.3 1009.3 0.0
27/02:30pm 22.5 20.8 14.6 61 4.7 SSW 17 22 9 12 1009.5 1009.5 0.0
27/02:00pm 22.8 20.8 14.9 61 4.7 SSW 19 22 10 12 1009.8 1009.8 0.0
27/01:30pm 22.4 20.4 15.5 65 4.1 SSW 20 26 11 14 1010.1 1010.1 0.0
27/01:00pm 23.1 22.1 15.7 63 4.5 SW 15 22 8 12 1010.0 1010.0 0.0
27/12:30pm 22.9 22.1 15.2 62 4.6 SSW 13 20 7 11 1010.3 1010.3 0.0
27/12:00pm 24.4 24.5 15.6 58 5.3 WSW 9 15 5 8 1010.5 1010.5 0.0
27/11:30am 23.7 23.2 13.8 53 5.8 ENE 9 15 5 8 1010.6 1010.6 0.0
27/11:00am 22.7 22.7 14.3 59 4.9 NE 7 13 4 7 1011.3 1011.3 0.0
27/10:30am 21.7 21.8 13.9 61 4.5 NE 6 13 3 7 1011.6 1011.6 0.0
27/10:00am 20.6 20.3 14.5 68 3.6 NNE 9 15 5 8 1011.7 1011.7 0.0
27/09:30am 18.8 19.4 16.8 88 1.2 NE 9 13 5 7 1011.5 1011.5 0.0
27/09:00am 16.5 17.4 16.2 98 0.2 NE 6 9 3 5 1011.5 1011.5 0.0
27/08:30am 15.2 15.7 14.9 98 0.2 NE 6 7 3 4 1011.3 1011.3 0.0
27/08:00am 14.6 14.6 14.3 98 0.2 ENE 7 9 4 5 1011.2 1011.2 0.0
27/07:30am 14.3 15.6 14.0 98 0.2 CALM 0 0 0 0 1011.4 1011.4 0.0
27/07:00am 13.7 14.8 13.4 98 0.2 CALM 0 0 0 0 1011.1 1011.1 0.0
27/06:30am 13.2 14.0 12.7 97 0.3 CALM 0 0 0 0 1010.4 1010.4 0.0
27/06:00am 13.6 13.8 13.1 97 0.3 E 4 6 2 3 1010.3 1010.3 0.0
27/05:30am 14.7 16.0 14.2 97 0.3 CALM 0 0 0 0 1010.5 1010.5 0.0
27/05:00am 14.9 15.6 14.4 97 0.3 E 4 6 2 3 1010.5 1010.5 0.0
27/04:30am 14.2 14.2 13.7 97 0.3 E 6 7 3 4 1010.4 1010.4 0.0
27/04:00am 14.4 14.5 13.9 97 0.3 E 6 6 3 3 1010.4 1010.4 0.0
27/03:30am 15.0 16.1 14.5 97 0.3 E 2 2 1 1 1010.7 1010.7 0.0
27/03:00am 15.5 16.0 15.0 97 0.3 E 6 7 3 4 1010.8 1010.8 0.0
27/02:30am 13.6 13.4 13.1 97 0.3 E 6 7 3 4 1010.9 1010.9 0.0
27/02:00am 12.4 12.5 11.6 95 0.4 S 2 2 1 1 1011.5 1011.5 0.0
27/01:30am 13.1 13.1 12.3 95 0.4 S 4 6 2 3 1011.5 1011.5 0.0
27/01:00am 13.5 14.0 12.7 95 0.4 S 2 4 1 2 1011.5 1011.5 0.0
27/12:30am 14.4 15.2 13.6 95 0.4 S 2 2 1 1 1012.2 1012.2 0.0
27/12:00am 14.8 15.2 13.8 94 0.6 S 4 4 2 2 1012.2 1012.2 0.0
 
Date/Time
CDT
Temp
°C
App
Temp
°C
Dew
Point
Rel
Hum
%
Delta-T
°C
Wind Press
QNH
hPa
Press
MSL
hPa
Rain
since 9 am
mm
Dir
 
Spd
km/h
Gust
km/h
Spd
kts
Gust
kts
26/11:30pm 15.8 16.7 15.0 95 0.5 S 4 6 2 3 1012.7 1012.7 0.0
26/11:00pm 16.1 16.8 15.5 96 0.3 S 6 9 3 5 1012.8 1012.8 0.0
26/10:30pm 15.3 15.4 14.5 95 0.5 S 7 9 4 5 1012.8 1012.8 0.0
26/10:00pm 15.8 16.0 14.8 94 0.6 S 7 9 4 5 1012.8 1012.8 0.0
26/09:30pm 15.2 14.8 14.2 94 0.6 SSW 9 9 5 5 1012.5 1012.5 0.0
26/09:00pm 15.8 15.5 14.5 92 0.7 SSW 9 11 5 6 1012.2 1012.2 0.0
26/08:30pm 16.3 16.5 14.7 90 0.9 SSW 7 9 4 5 1012.0 1012.0 0.0
26/08:00pm 17.2 17.6 15.2 88 1.2 SSW 7 9 4 5 1011.7 1011.7 0.0
26/07:30pm 18.4 17.8 15.6 84 1.7 SW 13 17 7 9 1011.7 1011.7 0.0
26/07:00pm 19.3 18.3 15.6 79 2.2 SSW 15 20 8 11 1011.3 1011.3 0.0
26/06:30pm 19.9 18.3 15.1 74 2.8 SW 17 22 9 12 1011.3 1011.3 0.0
26/06:00pm 20.5 19.1 14.6 69 3.4 SSW 15 22 8 12 1011.2 1011.2 0.0
26/05:30pm 20.9 19.8 15.2 70 3.4 SW 15 24 8 13 1011.1 1011.1 0.0
26/05:00pm 20.9 19.4 15.4 71 3.3 SW 17 22 9 12 1011.0 1011.0 0.0
26/04:30pm 20.9 18.9 15.0 69 3.5 SW 19 26 10 14 1011.2 1011.2 0.0
26/04:00pm 20.9 19.4 15.2 70 3.4 SW 17 24 9 13 1011.3 1011.3 0.0
26/03:30pm 21.6 20.4 15.0 66 3.9 SW 15 22 8 12 1011.6 1011.6 0.0
26/03:00pm 21.7 20.3 14.6 64 4.2 WSW 15 20 8 11 1011.8 1011.8 0.0
26/02:30pm 21.3 19.6 13.5 61 4.5 WSW 15 19 8 10 1012.0 1012.0 0.0
26/02:00pm 22.4 21.3 13.2 56 5.3 SW 11 20 6 11 1012.1 1012.1 0.0
26/01:30pm 22.3 21.4 13.6 58 5.0 SW 11 19 6 10 1012.3 1012.3 0.0
26/01:00pm 21.8 21.1 14.2 62 4.4 SW 11 24 6 13 1012.8 1012.8 0.0
26/12:30pm 21.1 20.2 13.8 63 4.2 SW 11 19 6 10 1012.9 1012.9 0.0
26/12:00pm 21.5 20.8 14.2 63 4.3 SW 11 19 6 10 1013.2 1013.2 0.0
26/11:30am 20.5 19.5 13.5 64 4.0 SW 11 17 6 9 1013.4 1013.4 0.0
26/11:00am 20.0 19.3 13.2 65 3.9 SW 9 17 5 9 1013.4 1013.4 0.0
26/10:30am 20.8 20.4 14.2 66 3.8 SW 9 19 5 10 1013.6 1013.6 0.0
26/10:00am 19.2 19.1 13.8 71 3.1 WSW 7 13 4 7 1013.4 1013.4 0.0
26/09:30am 18.4 17.7 13.3 72 2.9 SW 9 15 5 8 1013.5 1013.5 0.0
26/09:00am 17.9 17.2 13.2 74 2.6 SW 9 15 5 8 1013.2 1013.2 0.0
26/08:30am 16.7 17.1 14.7 88 1.1 WSW 6 11 3 6 1012.8 1012.8 0.0
26/08:00am 14.9 16.3 14.3 96 0.3 CALM 0 0 0 0 1012.4 1012.4 0.0
26/07:30am 12.2 12.6 11.4 95 0.4 CALM 0 0 0 0 1012.3 1012.3 0.0
26/07:00am 10.4 10.3 9.3 93 0.5 CALM 0 0 0 0 1012.3 1012.3 0.0
26/06:30am 11.4 11.5 10.1 92 0.7 CALM 0 0 0 0 1011.8 1011.8 0.0
26/06:00am 12.4 12.4 11.1 92 0.7 WSW 2 4 1 2 1011.6 1011.6 0.0
26/05:30am 13.4 13.7 12.1 92 0.7 SW 2 6 1 3 1011.5 1011.5 0.0
26/05:00am 13.5 14.1 11.9 90 0.9 CALM 0 0 0 0 1011.1 1011.1 0.0
26/04:30am 14.3 13.9 13.0 92 0.7 SW 7 13 4 7 1011.6 1011.6 0.0
26/04:00am 14.2 14.8 13.1 93 0.6 SW 2 6 1 3 1010.7 1010.7 0.0
26/03:30am 14.0 14.8 12.7 92 0.7 CALM 0 0 0 0 1010.6 1010.6 0.0
26/03:00am 14.1 14.9 12.7 91 0.8 CALM 0 0 0 0 1011.4 1011.4 0.0
26/02:30am 14.8 14.6 13.5 92 0.7 SW 7 11 4 6 1012.1 1012.1 0.0
26/02:00am 14.7 14.5 13.6 93 0.6 SW 7 11 4 6 1012.3 1012.3 0.0
26/01:30am 14.8 14.3 13.8 94 0.6 SW 9 13 5 7 1012.6 1012.6 0.0
26/01:00am 13.1 13.3 12.0 93 0.6 S 2 6 1 3 1012.2 1012.2 0.0
26/12:30am 13.4 14.2 12.5 94 0.5 CALM 0 0 0 0 1012.4 1012.4 0.0
26/12:00am 13.6 13.6 12.3 92 0.7 S 4 6 2 3 1012.6 1012.6 0.0
 
Date/Time
CDT
Temp
°C
App
Temp
°C
Dew
Point
Rel
Hum
%
Delta-T
°C
Wind Press
QNH
hPa
Press
MSL
hPa
Rain
since 9 am
mm
Dir
 
Spd
km/h
Gust
km/h
Spd
kts
Gust
kts
25/11:30pm 13.6 13.1 12.2 91 0.8 SSW 6 6 3 3 1013.2 1013.2 0.0
25/11:00pm 14.7 14.4 13.2 91 0.8 SSW 7 13 4 7 1013.8 1013.8 0.0
25/10:30pm 14.7 13.6 13.2 91 0.8 S 11 15 6 8 1013.9 1013.9 0.0
25/10:00pm 14.6 13.9 13.3 92 0.7 SSW 9 13 5 7 1014.1 1014.1 0.0
25/09:30pm 14.0 13.4 12.2 89 1.0 SSW 7 11 4 6 1014.0 1014.0 0.0
25/09:00pm 14.8 14.4 13.0 89 1.0 S 7 9 4 5 1013.5 1013.5 0.0
25/08:30pm 15.0 14.1 12.7 86 1.3 SSW 9 13 5 7 1013.6 1013.6 0.0
25/08:00pm 15.8 15.0 12.9 83 1.6 SSW 9 13 5 7 1013.0 1013.0 0.0
25/07:30pm 16.9 15.1 13.2 79 2.1 S 15 19 8 10 1013.0 1013.0 0.0
25/07:00pm 17.4 14.7 12.9 75 2.5 S 19 26 10 14 1013.3 1013.3 0.0
25/06:30pm 18.3 15.4 13.0 71 3.0 S 20 28 11 15 1013.3 1013.3 0.0
25/06:00pm 18.6 14.9 12.8 69 3.3 S 24 32 13 17 1013.3 1013.3 0.0
25/05:30pm 19.7 17.4 12.9 65 3.8 S 17 24 9 13 1012.9 1012.9 0.0
25/05:00pm 19.8 16.6 13.0 65 3.8 S 22 30 12 16 1013.1 1013.1 0.0
25/04:30pm 19.9 16.1 12.4 62 4.2 SSW 24 32 13 17 1013.7 1013.7 0.0
25/04:00pm 20.1 16.2 12.1 60 4.5 SSW 24 30 13 16 1014.1 1014.1 0.0
25/03:30pm 21.0 17.3 12.7 59 4.7 SSW 24 32 13 17 1014.2 1014.2 0.0
25/03:00pm 20.6 16.4 12.3 59 4.7 S 26 33 14 18 1014.7 1014.7 0.0
25/02:30pm 20.4 16.4 11.9 58 4.7 SSW 24 33 13 18 1015.3 1015.3 0.0
25/02:00pm 20.0 16.4 11.8 59 4.5 S 22 32 12 17 1015.5 1015.5 0.0
25/01:30pm 20.1 16.1 11.8 59 4.6 S 24 33 13 18 1015.9 1015.9 0.0
25/01:00pm 20.9 17.8 12.1 57 4.9 SSW 20 30 11 16 1016.2 1016.2 0.0
25/12:30pm 21.0 17.5 12.2 57 4.9 SSW 22 32 12 17 1016.8 1016.8 0.0
25/12:00pm 19.8 16.7 11.6 59 4.5 SSW 19 26 10 14 1017.4 1017.4 0.0
25/11:30am 20.8 18.5 11.7 56 5.0 S 15 24 8 13 1017.7 1017.7 0.0

Other Formats:

Comma delimited format used in spreadsheet applications
http://www.bom.gov.au/fwo/IDS60801/IDS60801.95816.axf

JavaScript Object Notation format (JSON) in row-major order
http://www.bom.gov.au/fwo/IDS60801/IDS60801.95816.json